createdAt,value
2018-05-12T00:00:47.865Z,3.3
2018-05-12T00:03:47.769Z,3.2
2018-05-12T00:06:47.791Z,3.2
2018-05-12T00:09:47.898Z,3.5
2018-05-12T00:12:47.820Z,3.2
2018-05-12T00:15:47.844Z,3.2
2018-05-12T00:18:47.930Z,3.2
2018-05-12T00:21:47.882Z,3.1
2018-05-12T00:24:47.943Z,3.7
2018-05-12T00:27:47.920Z,3.6
2018-05-12T00:30:47.943Z,3.4
2018-05-12T00:33:47.964Z,3.3
2018-05-12T00:36:47.993Z,3.3
2018-05-12T00:39:47.972Z,3.2
2018-05-12T00:42:47.971Z,3.1
2018-05-12T00:45:47.970Z,3.1
2018-05-12T00:48:48.105Z,3.2
2018-05-12T00:51:47.673Z,3.1
2018-05-12T00:54:47.594Z,3.3
2018-05-12T00:57:47.957Z,3.1
2018-05-12T01:00:48.091Z,3
2018-05-12T01:03:47.626Z,3.3
2018-05-12T01:06:47.699Z,3.2
2018-05-12T01:09:47.643Z,3.3
2018-05-12T01:12:48.206Z,3.2
2018-05-12T01:15:47.994Z,3.1
2018-05-12T01:18:47.588Z,3.2
2018-05-12T01:21:47.674Z,3.2
2018-05-12T01:24:47.743Z,3.2
2018-05-12T01:27:47.649Z,3.2
2018-05-12T01:30:47.678Z,3.2
2018-05-12T01:33:47.714Z,3.2
2018-05-12T01:36:47.608Z,3.2
2018-05-12T01:39:47.621Z,3.3
2018-05-12T01:42:47.680Z,3.3
2018-05-12T01:45:47.816Z,3.6
2018-05-12T01:48:47.814Z,3.3
2018-05-12T01:51:47.760Z,3.2
2018-05-12T01:54:47.851Z,3.4
2018-05-12T01:57:47.575Z,3.4
2018-05-12T02:00:47.783Z,3.2
2018-05-12T02:03:47.556Z,3.2
2018-05-12T02:06:47.776Z,3.3
2018-05-12T02:09:47.804Z,3.3
2018-05-12T02:12:47.831Z,3.2
2018-05-12T02:15:47.748Z,3.4
2018-05-12T02:18:47.678Z,3.4
2018-05-12T02:21:47.791Z,3.3
2018-05-12T02:24:47.639Z,3.4
2018-05-12T02:27:47.816Z,3.4
2018-05-12T02:30:47.729Z,3.4
2018-05-12T02:33:47.602Z,3.4
2018-05-12T02:36:47.667Z,3.5
2018-05-12T02:39:47.582Z,3.3
2018-05-12T02:42:47.590Z,3.7
2018-05-12T02:45:47.798Z,3.5
2018-05-12T02:48:47.823Z,3.4
2018-05-12T02:51:47.658Z,3.3
2018-05-12T02:54:47.686Z,3.4
2018-05-12T02:57:47.747Z,3.4
2018-05-12T03:00:47.558Z,3.5
2018-05-12T03:03:47.648Z,3.3
2018-05-12T03:06:47.760Z,3.3
2018-05-12T03:09:47.837Z,3.4
2018-05-12T03:12:47.640Z,3.3
2018-05-12T03:15:47.553Z,3.4
2018-05-12T03:18:47.802Z,3.3
2018-05-12T03:21:47.649Z,3.3
2018-05-12T03:24:47.844Z,3.5
2018-05-12T03:27:47.625Z,3.4
2018-05-12T03:30:47.778Z,3.5
2018-05-12T03:33:47.949Z,3.5
2018-05-12T03:36:48.157Z,3.5
2018-05-12T03:39:47.726Z,3.5
2018-05-12T03:42:47.968Z,3.6
2018-05-12T03:45:48.013Z,3.4
2018-05-12T03:48:48.049Z,3.5
2018-05-12T03:51:48.188Z,3.5
2018-05-12T03:54:47.796Z,3.3
2018-05-12T03:57:47.510Z,3.3
2018-05-12T04:00:47.663Z,3.4
2018-05-12T04:03:47.588Z,3.6
2018-05-12T04:06:47.709Z,3.3
2018-05-12T04:09:47.759Z,3.3
2018-05-12T04:12:47.771Z,3.4
2018-05-12T04:15:47.725Z,3.4
2018-05-12T04:18:47.675Z,3.3
2018-05-12T04:21:47.630Z,3.4
2018-05-12T04:24:47.683Z,3.4
2018-05-12T04:27:47.720Z,3.4
2018-05-12T04:30:47.672Z,3.4
2018-05-12T04:33:47.577Z,3.4
2018-05-12T04:36:47.752Z,3.3
2018-05-12T04:39:47.632Z,3.4
2018-05-12T04:42:47.790Z,3.4
2018-05-12T04:45:47.766Z,3.3
2018-05-12T04:48:47.476Z,3.3
2018-05-12T04:51:47.768Z,3.4
2018-05-12T04:54:47.594Z,3.5
2018-05-12T04:57:47.557Z,3.4
2018-05-12T05:00:47.542Z,3.5
2018-05-12T05:03:48.012Z,3.4
2018-05-12T05:06:47.614Z,3.4
2018-05-12T05:09:47.659Z,3.3
2018-05-12T05:12:47.627Z,3.3
2018-05-12T05:15:47.623Z,3.3
2018-05-12T05:18:47.721Z,3.3
2018-05-12T05:21:47.615Z,3.2
2018-05-12T05:24:47.606Z,3.2
2018-05-12T05:27:47.706Z,3.2
2018-05-12T05:30:47.505Z,3.2
2018-05-12T05:33:47.728Z,3.3
2018-05-12T05:36:47.593Z,3.3
2018-05-12T05:39:47.868Z,3.4
2018-05-12T05:42:47.532Z,3.4
2018-05-12T05:45:47.598Z,3.3
2018-05-12T05:48:47.660Z,3.2
2018-05-12T05:51:47.581Z,3.3
2018-05-12T05:54:47.644Z,3.4
2018-05-12T05:57:47.587Z,3.4
2018-05-12T06:00:47.664Z,3.3
2018-05-12T06:03:47.613Z,3.3
2018-05-12T06:06:48.561Z,3.2
2018-05-12T06:09:47.582Z,3.2
2018-05-12T06:12:47.715Z,3.1
2018-05-12T06:15:47.747Z,3
2018-05-12T06:18:47.603Z,3.1
2018-05-12T06:21:47.673Z,3.2
2018-05-12T06:24:47.695Z,3.2
2018-05-12T06:27:48.177Z,3.1
2018-05-12T06:30:47.660Z,3.4
2018-05-12T06:33:47.499Z,3.3
2018-05-12T06:36:47.475Z,3.1
2018-05-12T06:39:47.503Z,3.1
2018-05-12T06:42:47.545Z,3.1
2018-05-12T06:45:47.610Z,3
2018-05-12T06:48:47.881Z,3.1
2018-05-12T06:51:47.738Z,3
2018-05-12T06:54:47.783Z,3.1
2018-05-12T06:57:47.762Z,4
2018-05-12T07:00:47.653Z,3.6
2018-05-12T07:03:47.641Z,3.5
2018-05-12T07:06:47.572Z,3.3
2018-05-12T07:09:47.698Z,3.4
2018-05-12T07:12:47.638Z,3.4
2018-05-12T07:15:47.838Z,3.5
2018-05-12T07:18:47.826Z,3.5
2018-05-12T07:21:47.532Z,3.4
2018-05-12T07:24:47.768Z,3.5
2018-05-12T07:27:47.829Z,5.5
2018-05-12T07:30:47.794Z,4.7
2018-05-12T07:33:47.611Z,4.5
2018-05-12T07:36:47.711Z,4.3
2018-05-12T07:39:47.714Z,4.2
2018-05-12T07:42:47.618Z,4.1
2018-05-12T07:45:47.648Z,3.9
2018-05-12T07:48:47.722Z,3.9
2018-05-12T07:51:47.652Z,3.9
2018-05-12T07:54:47.767Z,4.9
2018-05-12T07:57:47.695Z,4.4
2018-05-12T08:00:47.692Z,4.1
2018-05-12T08:03:47.693Z,4.1
2018-05-12T08:06:47.771Z,3.9
2018-05-12T08:09:47.828Z,3.9
2018-05-12T08:12:48.620Z,3.7
2018-05-12T08:15:47.744Z,3.7
2018-05-12T08:18:47.681Z,4.2
2018-05-12T08:21:47.671Z,3.8
2018-05-12T08:24:47.836Z,3.9
2018-05-12T08:27:47.663Z,3.8
2018-05-12T08:30:47.750Z,3.8
2018-05-12T08:33:47.885Z,3.8
2018-05-12T08:36:47.801Z,3.6
2018-05-12T08:39:47.609Z,3.6
2018-05-12T08:42:47.749Z,3.6
2018-05-12T08:45:47.745Z,3.6
2018-05-12T08:48:47.540Z,3.5
2018-05-12T08:51:47.678Z,3.6
2018-05-12T08:54:47.652Z,3.6
2018-05-12T08:57:47.512Z,3.5
2018-05-12T09:00:47.561Z,3.4
2018-05-12T09:03:47.715Z,3.6
2018-05-12T09:06:47.784Z,3.8
2018-05-12T09:09:47.690Z,3.8
2018-05-12T09:12:47.701Z,4.1
2018-05-12T09:15:47.598Z,3.9
2018-05-12T09:18:47.723Z,4.8
2018-05-12T09:21:47.740Z,4.7
2018-05-12T09:24:47.616Z,4.4
2018-05-12T09:27:47.679Z,4.5
2018-05-12T09:30:47.810Z,3.9
2018-05-12T09:33:47.612Z,4.3
2018-05-12T09:36:47.814Z,4.8
2018-05-12T09:39:47.896Z,7.9
2018-05-12T09:42:47.702Z,7.4
2018-05-12T09:45:47.663Z,6.3
2018-05-12T09:48:47.721Z,7.6
2018-05-12T09:51:47.558Z,6.4
2018-05-12T09:54:47.813Z,9.1
2018-05-12T10:01:45.338Z,7.7
2018-05-12T10:04:45.399Z,8.5
2018-05-12T10:07:45.449Z,8.5
2018-05-12T10:10:45.532Z,7.3
2018-05-12T10:13:45.674Z,7.5
2018-05-12T10:16:45.625Z,6.4
2018-05-12T10:19:45.573Z,6.1
2018-05-12T10:22:45.824Z,5.1
2018-05-12T10:25:45.348Z,5.8
2018-05-12T10:28:45.528Z,6.8
2018-05-12T10:31:45.281Z,8.2
2018-05-12T10:34:45.432Z,8.8
2018-05-12T10:37:45.373Z,7.6
2018-05-12T10:40:45.478Z,8
2018-05-12T10:43:45.418Z,7
2018-05-12T12:03:38.471Z,9.3
2018-05-12T12:06:37.931Z,8.4
2018-05-12T12:09:37.726Z,8.3
2018-05-12T12:12:37.724Z,9.2
2018-05-12T12:15:37.732Z,10.8
2018-05-12T12:18:37.731Z,9.1
2018-05-12T12:21:37.650Z,10
2018-05-12T12:24:37.720Z,9.3
2018-05-12T12:27:37.815Z,9.1
2018-05-12T12:30:37.775Z,10.5
2018-05-12T12:33:37.726Z,9.7
2018-05-12T12:36:37.901Z,11
2018-05-12T12:40:09.325Z,8.7
2018-05-12T12:42:37.878Z,8.2
2018-05-12T12:45:37.757Z,7.3
2018-05-12T12:48:37.755Z,6.7
2018-05-12T12:51:38.642Z,7
2018-05-12T12:54:37.625Z,6.6
2018-05-12T12:57:37.847Z,7.9
2018-05-12T13:00:37.890Z,7.9
2018-05-12T13:03:37.858Z,8.4
2018-05-12T13:06:37.643Z,8
2018-05-12T13:09:37.693Z,7.6
2018-05-12T13:12:37.723Z,8.1
2018-05-12T13:15:37.870Z,8.2
2018-05-12T13:18:37.855Z,7.8
2018-05-12T13:21:38.574Z,7.1
2018-05-12T13:24:37.713Z,7.1
2018-05-12T13:27:37.586Z,7.1
2018-05-12T13:30:37.790Z,7.8
2018-05-12T13:33:38.787Z,9.4
2018-05-12T13:36:37.608Z,7.8
2018-05-12T13:39:37.691Z,7
2018-05-12T13:42:37.614Z,7.1
2018-05-12T13:45:47.653Z,7.6
2018-05-12T13:48:37.882Z,8
2018-05-12T13:51:37.798Z,6.8
2018-05-12T13:54:37.795Z,5.9
2018-05-12T13:57:37.795Z,6.2
2018-05-12T14:00:37.662Z,6.2
2018-05-12T14:03:37.897Z,7
2018-05-12T14:06:37.769Z,7.2
2018-05-12T14:09:37.752Z,6.3
2018-05-12T14:12:37.564Z,6.9
2018-05-12T14:15:37.735Z,6.6
2018-05-12T14:18:37.832Z,6.3
2018-05-12T14:21:37.612Z,6.6
2018-05-12T14:24:37.639Z,6.5
2018-05-12T14:27:37.794Z,6.2
2018-05-12T14:30:37.590Z,6
2018-05-12T14:33:37.788Z,6.3
2018-05-12T14:36:37.651Z,5.7
2018-05-12T14:39:37.614Z,6
2018-05-12T14:42:38.279Z,5.5
2018-05-12T14:45:37.796Z,5.3
2018-05-12T14:48:37.691Z,5.2
2018-05-12T14:51:37.710Z,5.5
2018-05-12T14:54:37.818Z,5.3
2018-05-12T14:57:37.549Z,4.8
2018-05-12T15:00:37.651Z,4.8
2018-05-12T15:03:37.689Z,5.3
2018-05-12T15:06:37.694Z,5.6
2018-05-12T15:09:37.720Z,5.4
2018-05-12T15:12:37.675Z,5.8
2018-05-12T15:15:37.607Z,5.6
2018-05-12T15:18:37.633Z,5.5
2018-05-12T15:21:37.894Z,5.2
2018-05-12T15:24:37.710Z,5.6
2018-05-12T15:27:37.780Z,5.3
2018-05-12T15:30:37.805Z,5.6
2018-05-12T15:33:37.755Z,6.3
2018-05-12T15:36:37.834Z,6.4
2018-05-12T15:39:37.907Z,5.9
2018-05-12T15:42:37.784Z,5.6
2018-05-12T15:45:38.055Z,5.5
2018-05-12T15:48:37.823Z,5.2
2018-05-12T15:51:37.922Z,5.2
2018-05-12T15:54:37.814Z,5.2
2018-05-12T15:57:37.910Z,5.1
2018-05-12T16:00:37.593Z,5.7
2018-05-12T16:03:37.641Z,5.3
2018-05-12T16:06:37.830Z,5.2
2018-05-12T16:09:37.678Z,5.4
2018-05-12T16:12:37.767Z,5.7
2018-05-12T16:15:37.725Z,6.7
2018-05-12T16:18:37.772Z,6
2018-05-12T16:21:37.787Z,5.4
2018-05-12T16:24:37.670Z,5.3
2018-05-12T16:27:37.654Z,6
2018-05-12T16:30:37.748Z,6
2018-05-12T16:33:37.847Z,6
2018-05-12T16:36:37.766Z,6.2
2018-05-12T16:39:37.744Z,5.5
2018-05-12T16:42:37.630Z,6.3
2018-05-12T16:48:21.961Z,7.6
2018-05-12T16:55:18.922Z,4.9
2018-05-12T16:58:18.906Z,5.8
2018-05-12T17:01:18.711Z,7.4
2018-05-12T17:04:18.782Z,6.7
2018-05-12T17:07:18.619Z,7.6
2018-05-12T17:10:18.688Z,7.2
2018-05-12T17:13:20.083Z,6.5
2018-05-12T17:16:18.758Z,6
2018-05-12T17:19:18.760Z,5.6
2018-05-12T17:22:18.976Z,6.4
2018-05-12T17:25:19.091Z,5.8
2018-05-12T17:28:18.741Z,5.1
2018-05-12T17:31:18.865Z,5
2018-05-12T17:34:18.822Z,4.9
2018-05-12T17:37:18.801Z,5.6
2018-05-12T17:40:18.854Z,4.8
2018-05-12T17:43:18.668Z,4.4
2018-05-12T17:46:18.941Z,4.1
2018-05-12T17:49:19.033Z,3.9
2018-05-12T17:52:18.794Z,3.8
2018-05-12T17:55:18.840Z,4.9
2018-05-12T17:58:18.867Z,4.5
2018-05-12T18:01:18.805Z,4.7
2018-05-12T18:04:18.817Z,4.1
2018-05-12T18:07:18.948Z,4.7
2018-05-12T18:10:18.806Z,4.7
2018-05-12T18:13:18.903Z,4.5
2018-05-12T18:16:18.845Z,4.9
2018-05-12T18:19:18.722Z,4.7
2018-05-12T18:22:19.089Z,4.3
2018-05-12T18:25:18.791Z,4.5
2018-05-12T18:28:18.758Z,4.3
2018-05-12T18:31:18.608Z,4.7
2018-05-12T18:34:19.012Z,4.4
2018-05-12T18:37:18.733Z,4
2018-05-12T18:40:18.805Z,4.6
2018-05-12T18:43:19.015Z,4.1
2018-05-12T18:46:18.602Z,3.8
2018-05-12T18:49:18.866Z,3.9
2018-05-12T18:52:18.912Z,3.8
2018-05-12T18:55:18.685Z,4.3
2018-05-12T18:58:18.783Z,4.1
2018-05-12T19:01:18.816Z,3.8
2018-05-12T19:04:18.647Z,3.8
2018-05-12T19:07:18.719Z,4.3
2018-05-12T19:10:18.891Z,4.3
2018-05-12T19:13:18.636Z,3.9
2018-05-12T19:16:18.702Z,4.3
2018-05-12T19:19:19.070Z,4
2018-05-12T19:22:18.673Z,3.8
2018-05-12T19:25:18.923Z,4.3
2018-05-12T19:28:18.808Z,3.8
2018-05-12T19:31:18.645Z,3.7
2018-05-12T19:34:18.903Z,3.7
2018-05-12T19:37:18.704Z,3.6
2018-05-12T19:40:18.786Z,3.5
2018-05-12T19:43:18.643Z,4
2018-05-12T19:46:18.819Z,4.1
2018-05-12T19:49:18.733Z,4
2018-05-12T19:52:18.997Z,3.7
2018-05-12T19:55:18.884Z,3.7
2018-05-12T19:58:18.529Z,5.2
2018-05-12T20:01:18.819Z,5.3
2018-05-12T20:04:18.667Z,4.8
2018-05-12T20:07:18.745Z,4.7
2018-05-12T20:10:19.227Z,5.2
2018-05-12T20:13:18.487Z,5.4
2018-05-12T20:16:18.860Z,4.6
2018-05-12T20:19:18.668Z,4.7
2018-05-12T20:22:18.688Z,4.5
2018-05-12T20:25:18.765Z,4.7
2018-05-12T20:28:18.871Z,4.4
2018-05-12T20:31:18.834Z,4.7
2018-05-12T20:34:18.701Z,4.6
2018-05-12T20:37:20.686Z,6.2
2018-05-12T20:40:18.685Z,5.2
2018-05-12T20:43:18.914Z,4.5
2018-05-12T20:46:18.655Z,4.2
2018-05-12T20:49:18.945Z,4.3
2018-05-12T20:52:18.770Z,5.3
2018-05-12T20:55:18.761Z,4.8
2018-05-12T20:58:18.931Z,4.7
2018-05-12T21:01:18.706Z,4.1
2018-05-12T21:04:18.716Z,4.3
2018-05-12T21:07:18.838Z,4.8
2018-05-12T21:10:18.786Z,4.1
2018-05-12T21:13:19.217Z,5.5
2018-05-12T21:16:18.681Z,4.6
2018-05-12T21:19:18.989Z,4
2018-05-12T21:22:19.040Z,4
2018-05-12T21:25:18.719Z,4.1
2018-05-12T21:28:18.704Z,4.2
2018-05-12T21:31:18.971Z,3.8
2018-05-12T21:34:18.743Z,4
2018-05-12T21:37:18.604Z,4
2018-05-12T21:40:19.243Z,3.7
2018-05-12T21:43:18.755Z,3.8
2018-05-12T21:46:18.682Z,3.9
2018-05-12T21:49:19.198Z,3.6
2018-05-12T21:52:18.732Z,3.8
2018-05-12T21:55:18.589Z,3.9
2018-05-12T21:58:18.584Z,3.8
2018-05-12T22:01:19.127Z,3.6
2018-05-12T22:04:18.734Z,3.5
2018-05-12T22:07:18.600Z,3.7
2018-05-12T22:10:18.571Z,4.1
2018-05-12T22:13:18.613Z,4.1
2018-05-12T22:16:18.576Z,4
2018-05-12T22:19:18.811Z,3.6
2018-05-12T22:22:18.637Z,3.7
2018-05-12T22:25:18.566Z,3.5
2018-05-12T22:28:18.593Z,3.6
2018-05-12T22:31:18.679Z,3.9
2018-05-12T22:34:42.236Z,3.7
2018-05-12T22:37:18.724Z,3.9
2018-05-12T22:40:18.759Z,3.7
2018-05-12T22:43:18.622Z,3.6
2018-05-12T22:46:18.729Z,3.6
2018-05-12T22:49:18.688Z,3.4
2018-05-12T22:52:18.629Z,3.6
2018-05-12T22:55:18.705Z,3.7
2018-05-12T22:58:18.809Z,3.4
2018-05-12T23:01:18.708Z,3.3
2018-05-12T23:04:18.646Z,3.3
2018-05-12T23:07:18.619Z,3.5
2018-05-12T23:10:18.653Z,3.6
2018-05-12T23:13:18.715Z,3.5
2018-05-12T23:16:18.662Z,3.4
2018-05-12T23:19:18.635Z,3.3
2018-05-12T23:22:18.724Z,3.4
2018-05-12T23:25:18.810Z,3.2
2018-05-12T23:28:18.613Z,3.5
2018-05-12T23:31:18.692Z,3.3
2018-05-12T23:34:18.678Z,3.4
2018-05-12T23:37:18.688Z,3.3
2018-05-12T23:40:18.635Z,3.3
2018-05-12T23:43:18.678Z,3.5
2018-05-12T23:46:18.493Z,3.5
2018-05-12T23:49:18.788Z,3.4
2018-05-12T23:52:18.634Z,3.3
2018-05-12T23:55:18.518Z,3.2
2018-05-12T23:58:19.586Z,3.1
